createdAt,value
2019-05-26T00:00:31.158Z,99996.00
2019-05-26T00:01:32.672Z,100001.38
2019-05-26T00:02:34.073Z,99996.49
2019-05-26T00:03:35.537Z,99992.66
2019-05-26T00:04:36.915Z,99991.49
2019-05-26T00:05:38.320Z,99991.98
2019-05-26T00:06:39.698Z,99991.98
2019-05-26T00:07:41.103Z,99984.94
2019-05-26T00:08:42.625Z,99988.65
2019-05-26T00:09:44.143Z,99988.65
2019-05-26T00:10:45.558Z,99980.79
2019-05-26T00:11:46.968Z,99980.79
2019-05-26T00:12:48.381Z,99979.44
2019-05-26T00:13:50.053Z,99976.75
2019-05-26T00:14:52.047Z,99976.75
2019-05-26T00:15:53.629Z,99977.25
2019-05-26T00:16:55.511Z,99971.70
2019-05-26T00:17:56.912Z,99966.00
2019-05-26T00:18:58.485Z,99965.47
2019-05-26T00:19:59.901Z,99962.98
2019-05-26T00:21:01.346Z,99961.12
2019-05-26T00:22:02.760Z,99961.12
2019-05-26T00:23:04.166Z,99958.11
2019-05-26T00:24:05.607Z,99964.13
2019-05-26T00:25:07.384Z,99960.42
2019-05-26T00:26:09.077Z,99966.12
2019-05-26T00:27:10.529Z,99963.95
2019-05-26T00:28:12.218Z,99955.04
2019-05-26T00:29:13.632Z,99953.52
2019-05-26T00:30:15.122Z,99952.67
2019-05-26T00:31:16.509Z,99951.98
2019-05-26T00:32:19.001Z,99948.30
2019-05-26T00:33:20.391Z,99957.70
2019-05-26T00:34:22.046Z,99956.36
2019-05-26T00:35:23.424Z,99947.45
2019-05-26T00:36:24.929Z,99949.28
2019-05-26T00:37:26.304Z,99947.45
2019-05-26T00:38:27.708Z,99945.45
2019-05-26T00:39:29.253Z,99937.88
2019-05-26T00:40:30.792Z,99939.76
2019-05-26T00:41:32.132Z,99944.11
2019-05-26T00:42:33.521Z,99939.76
2019-05-26T00:43:34.917Z,99943.27
2019-05-26T00:44:36.457Z,99938.91
2019-05-26T00:45:38.122Z,99932.89
2019-05-26T00:46:39.696Z,99939.61
2019-05-26T00:47:41.071Z,99936.92
2019-05-26T00:48:42.472Z,99939.81
2019-05-26T00:49:43.889Z,99936.27
2019-05-26T00:50:45.275Z,99934.44
2019-05-26T00:51:46.668Z,99929.55
2019-05-26T00:52:48.159Z,99929.76
2019-05-26T00:53:49.545Z,99930.78
2019-05-26T00:54:51.170Z,99928.59
2019-05-26T00:55:52.646Z,99930.95
2019-05-26T00:56:54.041Z,99928.27
2019-05-26T00:57:55.492Z,99926.59
2019-05-26T00:58:56.977Z,99924.44
2019-05-26T00:59:58.403Z,99931.16
2019-05-26T01:01:00.882Z,99926.80
2019-05-26T01:02:02.327Z,99930.30
2019-05-26T01:03:07.784Z,99924.61
2019-05-26T01:04:09.228Z,99919.76
2019-05-26T01:05:10.829Z,99920.58
2019-05-26T01:06:12.205Z,99914.38
2019-05-26T01:07:17.780Z,99916.55
2019-05-26T01:08:19.153Z,99909.82
2019-05-26T01:09:20.550Z,99910.14
2019-05-26T01:10:21.967Z,99916.05
2019-05-26T01:11:23.382Z,99905.47
2019-05-26T01:12:24.788Z,99910.67
2019-05-26T01:13:26.201Z,99910.14
2019-05-26T01:14:27.617Z,99906.11
2019-05-26T01:15:29.123Z,99908.80
2019-05-26T01:16:30.591Z,99907.28
2019-05-26T01:17:32.176Z,99907.78
2019-05-26T01:18:33.548Z,99898.69
2019-05-26T01:19:35.063Z,99905.94
2019-05-26T01:20:36.616Z,99899.22
2019-05-26T01:21:38.034Z,99897.88
2019-05-26T01:22:39.445Z,99904.92
2019-05-26T01:23:40.857Z,99898.69
2019-05-26T01:24:42.537Z,99904.07
2019-05-26T01:25:44.132Z,99899.22
2019-05-26T01:26:45.497Z,99898.20
2019-05-26T01:27:47.097Z,99892.30
2019-05-26T01:28:48.661Z,99891.97
2019-05-26T01:29:50.148Z,99890.62
2019-05-26T01:30:51.570Z,99887.94
2019-05-26T01:31:52.962Z,99882.06
2019-05-26T01:32:54.448Z,99879.06
2019-05-26T01:33:55.842Z,99879.87
2019-05-26T01:34:57.233Z,99877.19
2019-05-26T01:35:59.065Z,99875.03
2019-05-26T01:37:00.736Z,99876.55
2019-05-26T01:38:02.738Z,99870.84
2019-05-26T01:39:05.909Z,99874.38
2019-05-26T01:40:07.709Z,99880.25
2019-05-26T01:41:09.234Z,99874.55
2019-05-26T01:42:10.627Z,99869.17
2019-05-26T01:43:12.221Z,99869.88
2019-05-26T01:44:13.609Z,99862.84
2019-05-26T01:45:14.989Z,99869.88
2019-05-26T01:46:16.420Z,99865.20
2019-05-26T01:47:17.903Z,99865.73
2019-05-26T01:48:19.912Z,99863.53
2019-05-26T01:49:21.288Z,99860.03
2019-05-26T01:50:23.690Z,99856.81
2019-05-26T01:51:25.206Z,99859.50
2019-05-26T01:52:26.600Z,99856.81
2019-05-26T01:53:27.984Z,99858.69
2019-05-26T01:54:29.379Z,99851.13
2019-05-26T01:55:30.780Z,99852.78
2019-05-26T01:56:32.198Z,99854.66
2019-05-26T01:57:33.568Z,99851.97
2019-05-26T01:58:35.057Z,99851.44
2019-05-26T01:59:36.606Z,99853.11
2019-05-26T02:00:38.014Z,99850.25
2019-05-26T02:01:39.499Z,99854.77
2019-05-26T02:02:41.961Z,99844.23
2019-05-26T02:03:43.355Z,99845.89
2019-05-26T02:04:44.736Z,99846.06
2019-05-26T02:05:46.239Z,99843.70
2019-05-26T02:06:47.905Z,99846.39
2019-05-26T02:07:49.519Z,99841.54
2019-05-26T02:08:50.927Z,99841.34
2019-05-26T02:09:52.333Z,99841.02
2019-05-26T02:10:53.745Z,99838.64
2019-05-26T02:11:55.313Z,99836.48
2019-05-26T02:12:57.784Z,99835.46
2019-05-26T02:13:59.277Z,99831.11
2019-05-26T02:15:00.651Z,99839.81
2019-05-26T02:16:02.050Z,99841.98
2019-05-26T02:17:03.842Z,99838.27
2019-05-26T02:18:05.246Z,99840.63
2019-05-26T02:19:06.650Z,99839.94
2019-05-26T02:20:08.257Z,99835.58
2019-05-26T02:21:14.586Z,99843.14
2019-05-26T02:22:13.964Z,99838.27
2019-05-26T02:23:15.442Z,99834.23
2019-05-26T02:24:16.832Z,99830.41
2019-05-26T02:25:18.809Z,99835.26
2019-05-26T02:26:20.206Z,99831.22
2019-05-26T02:27:21.713Z,99829.56
2019-05-26T02:28:23.117Z,99834.94
2019-05-26T02:29:24.509Z,99829.56
2019-05-26T02:30:26.071Z,99830.09
2019-05-26T02:31:27.445Z,99830.58
2019-05-26T02:32:28.888Z,99834.94
2019-05-26T02:33:31.258Z,99829.23
2019-05-26T02:34:32.666Z,99836.81
2019-05-26T02:35:34.053Z,99830.58
2019-05-26T02:36:35.452Z,99824.39
2019-05-26T02:37:36.873Z,99830.58
2019-05-26T02:38:57.379Z,99831.11
2019-05-26T02:39:42.039Z,99828.92
2019-05-26T02:40:43.428Z,99822.73
2019-05-26T02:41:44.824Z,99824.56
2019-05-26T02:42:46.263Z,99825.91
2019-05-26T02:43:47.752Z,99818.87
2019-05-26T02:44:49.160Z,99824.24
2019-05-26T02:45:50.565Z,99820.91
2019-05-26T02:46:51.938Z,99816.35
2019-05-26T02:47:54.535Z,99820.91
2019-05-26T02:48:55.940Z,99813.02
2019-05-26T02:49:57.322Z,99816.23
2019-05-26T02:50:58.709Z,99816.23
2019-05-26T02:52:00.098Z,99818.92
2019-05-26T02:53:01.600Z,99818.92
2019-05-26T02:54:03.284Z,99818.61
2019-05-26T02:55:05.194Z,99815.39
2019-05-26T02:56:06.675Z,99813.41
2019-05-26T02:57:08.054Z,99816.73
2019-05-26T02:58:09.570Z,99816.73
2019-05-26T02:59:11.070Z,99807.86
2019-05-26T03:00:14.153Z,99806.19
2019-05-26T03:01:15.605Z,99812.20
2019-05-26T03:02:17.122Z,99806.83
2019-05-26T03:03:19.474Z,99808.17
2019-05-26T03:04:21.258Z,99809.84
2019-05-26T03:05:22.667Z,99807.16
2019-05-26T03:06:25.245Z,99805.28
2019-05-26T03:07:27.443Z,99804.47
2019-05-26T03:08:32.563Z,99799.41
2019-05-26T03:09:37.176Z,99802.09
2019-05-26T03:10:39.175Z,99801.08
2019-05-26T03:11:42.982Z,99808.12
2019-05-26T03:12:47.096Z,99807.80
2019-05-26T03:13:49.274Z,99807.27
2019-05-26T03:14:51.001Z,99806.77
2019-05-26T03:15:54.804Z,99801.72
2019-05-26T03:16:59.897Z,99801.72
2019-05-26T03:18:06.222Z,99800.38
2019-05-26T03:19:08.640Z,99793.66
2019-05-26T03:20:13.618Z,99798.00
2019-05-26T03:21:18.593Z,99790.97
2019-05-26T03:22:21.805Z,99791.99
2019-05-26T03:23:26.930Z,99793.33
2019-05-26T03:24:28.443Z,99792.31
2019-05-26T03:25:33.528Z,99793.33
2019-05-26T03:26:34.925Z,99786.79
2019-05-26T03:27:36.412Z,99780.91
2019-05-26T03:28:37.908Z,99790.00
2019-05-26T03:29:39.305Z,99781.41
2019-05-26T03:30:40.697Z,99780.59
2019-05-26T03:31:42.154Z,99777.91
2019-05-26T03:32:43.577Z,99773.88
2019-05-26T03:33:45.039Z,99777.91
2019-05-26T03:34:46.450Z,99777.06
2019-05-26T03:35:47.898Z,99778.41
2019-05-26T03:36:50.374Z,99771.19
2019-05-26T03:37:51.754Z,99767.66
2019-05-26T03:38:53.138Z,99765.17
2019-05-26T03:39:54.547Z,99770.88
2019-05-26T03:40:56.031Z,99770.02
2019-05-26T03:41:57.459Z,99762.66
2019-05-26T03:42:58.829Z,99766.20
2019-05-26T03:44:00.234Z,99761.84
2019-05-26T03:45:01.930Z,99761.52
2019-05-26T03:46:15.050Z,99762.87
2019-05-26T03:47:17.109Z,99767.39
2019-05-26T03:48:18.755Z,99759.66
2019-05-26T03:49:20.127Z,99763.89
2019-05-26T03:50:21.737Z,99760.56
2019-05-26T03:51:23.109Z,99763.25
2019-05-26T03:52:24.528Z,99764.59
2019-05-26T03:53:25.894Z,99766.97
2019-05-26T03:54:27.405Z,99758.38
2019-05-26T03:55:28.907Z,99758.90
2019-05-26T03:56:30.316Z,99769.65
2019-05-26T03:57:31.790Z,99762.61
2019-05-26T03:58:33.182Z,99760.73
2019-05-26T03:59:34.668Z,99763.42
2019-05-26T04:00:36.190Z,99757.56
2019-05-26T04:01:37.593Z,99764.27
2019-05-26T04:02:39.085Z,99755.89
2019-05-26T04:03:40.639Z,99759.39
2019-05-26T04:04:42.056Z,99757.56
2019-05-26T04:05:43.501Z,99757.56
2019-05-26T04:06:44.894Z,99759.72
2019-05-26T04:07:46.394Z,99751.66
2019-05-26T04:08:47.879Z,99753.53
2019-05-26T04:10:03.997Z,99752.50
2019-05-26T04:10:52.805Z,99753.84
2019-05-26T04:11:54.210Z,99747.94
2019-05-26T04:12:55.625Z,99759.55
2019-05-26T04:13:57.142Z,99748.47
2019-05-26T04:14:58.561Z,99745.25
2019-05-26T04:16:01.243Z,99742.39
2019-05-26T04:17:02.618Z,99740.52
2019-05-26T04:18:04.119Z,99737.02
2019-05-26T04:19:05.488Z,99737.02
2019-05-26T04:20:07.492Z,99735.35
2019-05-26T04:21:08.917Z,99734.13
2019-05-26T04:22:10.323Z,99733.31
2019-05-26T04:23:11.737Z,99733.31
2019-05-26T04:24:13.154Z,99726.91
2019-05-26T04:25:14.559Z,99725.03
2019-05-26T04:26:15.962Z,99722.34
2019-05-26T04:27:17.343Z,99717.30
2019-05-26T04:28:19.845Z,99718.14
2019-05-26T04:29:21.336Z,99714.92
2019-05-26T04:30:22.749Z,99713.09
2019-05-26T04:31:24.159Z,99715.77
2019-05-26T04:32:25.563Z,99711.42
2019-05-26T04:33:27.031Z,99705.02
2019-05-26T04:34:28.404Z,99709.23
2019-05-26T04:35:29.808Z,99714.11
2019-05-26T04:36:31.382Z,99714.11
2019-05-26T04:37:32.880Z,99710.08
2019-05-26T04:38:34.278Z,99705.41
2019-05-26T04:39:35.663Z,99716.16
2019-05-26T04:40:37.053Z,99713.47
2019-05-26T04:41:38.583Z,99713.47
2019-05-26T04:42:39.970Z,99706.75
2019-05-26T04:43:41.479Z,99708.09
2019-05-26T04:44:42.866Z,99705.41
2019-05-26T04:45:44.269Z,99709.13
2019-05-26T04:46:45.684Z,99700.73
2019-05-26T04:47:47.085Z,99704.56
2019-05-26T04:48:48.477Z,99706.11
2019-05-26T04:49:49.873Z,99702.08
2019-05-26T04:50:51.253Z,99706.11
2019-05-26T04:51:52.660Z,99702.08
2019-05-26T04:53:06.176Z,99701.77
2019-05-26T04:53:57.344Z,99698.55
2019-05-26T04:54:58.941Z,99701.77
2019-05-26T04:56:00.344Z,99693.38
2019-05-26T04:57:01.758Z,99690.69
2019-05-26T04:58:03.741Z,99693.38
2019-05-26T04:59:05.134Z,99690.69
2019-05-26T05:00:07.422Z,99685.00
2019-05-26T05:01:08.920Z,99683.66
2019-05-26T05:02:10.351Z,99685.50
2019-05-26T05:03:11.726Z,99682.81
2019-05-26T05:04:13.279Z,99681.47
2019-05-26T05:05:14.987Z,99684.47
2019-05-26T05:06:16.393Z,99683.13
2019-05-26T05:07:17.995Z,99679.31
2019-05-26T05:08:20.479Z,99679.41
2019-05-26T05:09:21.870Z,99682.11
2019-05-26T05:10:23.251Z,99677.89
2019-05-26T05:11:24.952Z,99680.58
2019-05-26T05:12:26.403Z,99674.68
2019-05-26T05:13:27.782Z,99676.88
2019-05-26T05:14:29.209Z,99671.50
2019-05-26T05:15:30.617Z,99678.22
2019-05-26T05:16:32.035Z,99673.34
2019-05-26T05:17:33.561Z,99679.88
2019-05-26T05:18:34.951Z,99671.29
2019-05-26T05:19:36.469Z,99673.97
2019-05-26T05:20:38.549Z,99678.33
2019-05-26T05:21:39.945Z,99670.08
2019-05-26T05:22:42.470Z,99666.55
2019-05-26T05:23:43.886Z,99670.58
2019-05-26T05:24:45.288Z,99667.40
2019-05-26T05:25:47.038Z,99670.27
2019-05-26T05:26:48.662Z,99666.23
2019-05-26T05:27:50.616Z,99669.12
2019-05-26T05:28:52.069Z,99671.29
2019-05-26T05:29:53.463Z,99667.26
2019-05-26T05:30:54.941Z,99665.09
2019-05-26T05:31:56.496Z,99659.72
2019-05-26T05:32:57.916Z,99663.44
2019-05-26T05:33:59.303Z,99667.47
2019-05-26T05:35:00.766Z,99664.78
2019-05-26T05:36:02.246Z,99664.78
2019-05-26T05:37:04.641Z,99660.42
2019-05-26T05:38:06.070Z,99659.09
2019-05-26T05:39:07.541Z,99665.09
2019-05-26T05:40:09.457Z,99667.58
2019-05-26T05:41:10.802Z,99664.81
2019-05-26T05:42:12.181Z,99663.12
2019-05-26T05:43:13.705Z,99654.67
2019-05-26T05:44:16.972Z,99657.46
2019-05-26T05:45:18.670Z,99656.75
2019-05-26T05:46:20.041Z,99658.81
2019-05-26T05:47:21.433Z,99658.81
2019-05-26T05:48:22.934Z,99652.80
2019-05-26T05:49:24.332Z,99660.75
2019-05-26T05:50:25.720Z,99653.71
2019-05-26T05:51:27.121Z,99650.39
2019-05-26T05:52:28.508Z,99652.41
2019-05-26T05:53:29.910Z,99652.61
2019-05-26T05:54:31.386Z,99650.95
2019-05-26T05:55:32.792Z,99650.31
2019-05-26T05:56:34.164Z,99647.48
2019-05-26T05:57:35.668Z,99647.17
2019-05-26T05:58:37.185Z,99649.54
2019-05-26T05:59:38.578Z,99649.54
2019-05-26T06:00:40.075Z,99645.72
2019-05-26T06:01:41.597Z,99642.71
2019-05-26T06:02:44.820Z,99640.20
2019-05-26T06:03:46.455Z,99639.39
2019-05-26T06:04:47.841Z,99640.20
2019-05-26T06:05:49.404Z,99643.91
2019-05-26T06:06:50.930Z,99641.05
2019-05-26T06:07:53.321Z,99639.50
2019-05-26T06:08:54.830Z,99637.97
2019-05-26T06:09:56.213Z,99631.89
2019-05-26T06:10:57.620Z,99631.82
2019-05-26T06:11:58.992Z,99633.41
2019-05-26T06:13:01.389Z,99636.03
2019-05-26T06:14:02.978Z,99636.98
2019-05-26T06:15:11.440Z,99629.88
2019-05-26T06:16:13.426Z,99632.48
2019-05-26T06:17:14.842Z,99630.89
2019-05-26T06:18:16.258Z,99631.66
2019-05-26T06:19:17.997Z,99632.08
2019-05-26T06:20:19.472Z,99628.82
2019-05-26T06:21:20.870Z,99626.38
2019-05-26T06:22:22.362Z,99628.77
2019-05-26T06:23:23.760Z,99624.69
2019-05-26T06:24:25.182Z,99629.45
2019-05-26T06:25:26.606Z,99618.97
2019-05-26T06:26:28.002Z,99619.20
2019-05-26T06:27:29.435Z,99624.84
2019-05-26T06:28:30.849Z,99622.39
2019-05-26T06:29:32.388Z,99612.88
2019-05-26T06:30:33.759Z,99618.50
2019-05-26T06:31:35.171Z,99613.66
2019-05-26T06:32:36.551Z,99611.19
2019-05-26T06:33:38.119Z,99617.83
2019-05-26T06:34:39.517Z,99610.83
2019-05-26T06:35:40.915Z,99613.94
2019-05-26T06:36:42.433Z,99612.00
2019-05-26T06:37:43.810Z,99607.77
2019-05-26T06:38:45.220Z,99614.72
2019-05-26T06:39:46.633Z,99608.41
2019-05-26T06:40:48.030Z,99607.81
2019-05-26T06:41:49.416Z,99605.74
2019-05-26T06:42:50.916Z,99600.80
2019-05-26T06:43:52.407Z,99612.00
2019-05-26T06:44:54.279Z,99601.86
2019-05-26T06:45:55.722Z,99603.64
2019-05-26T06:46:57.226Z,99605.08
2019-05-26T06:47:59.143Z,99601.66
2019-05-26T06:49:00.546Z,99601.98
2019-05-26T06:50:05.265Z,99601.88
2019-05-26T06:51:06.651Z,99597.84
2019-05-26T06:52:08.039Z,99598.47
2019-05-26T06:53:09.435Z,99601.28
2019-05-26T06:54:10.837Z,99598.09
2019-05-26T06:55:12.732Z,99596.02
2019-05-26T06:56:14.111Z,99599.84
2019-05-26T06:57:15.528Z,99598.80
2019-05-26T06:58:16.894Z,99599.11
2019-05-26T06:59:18.298Z,99599.96
2019-05-26T07:00:20.244Z,99602.13
2019-05-26T07:01:21.738Z,99595.92
2019-05-26T07:02:23.125Z,99597.89
2019-05-26T07:03:24.620Z,99595.20
2019-05-26T07:04:26.254Z,99595.70
2019-05-26T07:05:27.857Z,99592.50
2019-05-26T07:06:29.577Z,99593.84
2019-05-26T07:07:31.113Z,99597.36
2019-05-26T07:08:32.477Z,99593.84
2019-05-26T07:09:33.873Z,99590.62
2019-05-26T07:10:35.469Z,99593.62
2019-05-26T07:11:53.899Z,99587.11
2019-05-26T07:12:40.148Z,99594.34
2019-05-26T07:13:41.543Z,99592.19
2019-05-26T07:14:43.032Z,99588.15
2019-05-26T07:15:44.461Z,99589.49
2019-05-26T07:16:45.950Z,99585.14
2019-05-26T07:17:47.358Z,99585.64
2019-05-26T07:18:49.738Z,99584.30
2019-05-26T07:19:51.143Z,99586.48
2019-05-26T07:20:52.553Z,99584.30
2019-05-26T07:21:53.947Z,99587.52
2019-05-26T07:22:55.330Z,99584.30
2019-05-26T07:23:56.724Z,99586.48
2019-05-26T07:24:58.214Z,99584.83
2019-05-26T07:25:59.645Z,99584.52
2019-05-26T07:27:01.038Z,99585.14
2019-05-26T07:28:03.496Z,99584.61
2019-05-26T07:29:04.907Z,99588.15
2019-05-26T07:30:08.123Z,99577.88
2019-05-26T07:31:09.550Z,99584.41
2019-05-26T07:32:11.033Z,99581.50
2019-05-26T07:33:12.427Z,99576.95
2019-05-26T07:34:13.814Z,99581.50
2019-05-26T07:35:15.414Z,99581.00
2019-05-26T07:36:16.938Z,99574.26
2019-05-26T07:37:18.331Z,99580.77
2019-05-26T07:38:19.798Z,99571.66
2019-05-26T07:39:21.172Z,99574.66
2019-05-26T07:40:22.587Z,99576.32
2019-05-26T07:41:24.190Z,99581.20
2019-05-26T07:42:25.576Z,99574.16
2019-05-26T07:43:28.207Z,99574.97
2019-05-26T07:44:29.861Z,99576.32
2019-05-26T07:45:31.253Z,99568.77
2019-05-26T07:46:32.686Z,99571.78
2019-05-26T07:47:34.061Z,99573.13
2019-05-26T07:48:36.210Z,99571.47
2019-05-26T07:49:37.756Z,99567.42
2019-05-26T07:50:39.155Z,99571.78
2019-05-26T07:51:40.668Z,99575.81
2019-05-26T07:52:42.053Z,99573.13
2019-05-26T07:53:43.444Z,99571.23
2019-05-26T07:54:44.830Z,99572.09
2019-05-26T07:55:46.224Z,99572.81
2019-05-26T07:56:47.788Z,99567.42
2019-05-26T07:57:49.276Z,99571.47
2019-05-26T07:58:50.686Z,99571.97
2019-05-26T07:59:52.069Z,99571.47
2019-05-26T08:00:53.467Z,99567.11
2019-05-26T08:01:54.990Z,99564.61
2019-05-26T08:02:56.600Z,99566.48
2019-05-26T08:03:58.008Z,99559.75
2019-05-26T08:04:59.706Z,99566.17
2019-05-26T08:06:01.108Z,99564.52
2019-05-26T08:07:02.827Z,99559.63
2019-05-26T08:08:12.635Z,99566.91
2019-05-26T08:09:07.863Z,99562.55
2019-05-26T08:10:09.633Z,99559.32
2019-05-26T08:11:11.036Z,99559.86
2019-05-26T08:12:25.035Z,99561.70
2019-05-26T08:13:15.868Z,99556.84
2019-05-26T08:14:17.391Z,99553.31
2019-05-26T08:15:18.902Z,99551.15
2019-05-26T08:16:20.304Z,99557.58
2019-05-26T08:17:21.732Z,99556.23
2019-05-26T08:18:23.109Z,99552.91
2019-05-26T08:19:24.616Z,99556.95
2019-05-26T08:20:26.090Z,99546.17
2019-05-26T08:21:27.495Z,99550.84
2019-05-26T08:22:29.036Z,99546.48
2019-05-26T08:23:30.451Z,99553.22
2019-05-26T08:24:31.861Z,99549.48
2019-05-26T08:25:33.283Z,99550.84
2019-05-26T08:26:34.692Z,99553.84
2019-05-26T08:27:36.231Z,99554.16
2019-05-26T08:28:37.604Z,99552.81
2019-05-26T08:29:39.112Z,99554.16
2019-05-26T08:30:40.490Z,99552.81
2019-05-26T08:31:41.890Z,99553.12
2019-05-26T08:32:43.284Z,99553.12
2019-05-26T08:33:44.762Z,99553.73
2019-05-26T08:34:46.209Z,99551.05
2019-05-26T08:35:47.625Z,99542.34
2019-05-26T08:36:49.041Z,99545.66
2019-05-26T08:37:50.645Z,99551.05
2019-05-26T08:38:52.025Z,99542.42
2019-05-26T08:39:55.738Z,99545.44
2019-05-26T08:40:57.138Z,99547.31
2019-05-26T08:41:58.537Z,99551.13
2019-05-26T08:43:00.101Z,99550.32
2019-05-26T08:44:01.517Z,99550.01
2019-05-26T08:45:04.624Z,99551.67
2019-05-26T08:46:06.163Z,99548.12
2019-05-26T08:47:07.569Z,99550.32
2019-05-26T08:48:09.165Z,99545.13
2019-05-26T08:49:10.545Z,99551.67
2019-05-26T08:50:12.655Z,99543.27
2019-05-26T08:51:14.031Z,99548.97
2019-05-26T08:52:15.437Z,99548.66
2019-05-26T08:53:16.968Z,99545.13
2019-05-26T08:54:18.399Z,99545.44
2019-05-26T08:55:21.513Z,99547.00
2019-05-26T08:56:23.036Z,99542.66
2019-05-26T08:57:24.441Z,99547.00
2019-05-26T08:58:29.153Z,99545.13
2019-05-26T08:59:29.340Z,99549.39
2019-05-26T09:00:30.741Z,99545.34
2019-05-26T09:01:32.112Z,99539.95
2019-05-26T09:02:33.525Z,99541.72
2019-05-26T09:03:34.957Z,99549.27
2019-05-26T09:04:36.310Z,99544.60
2019-05-26T09:05:37.744Z,99543.26
2019-05-26T09:06:39.229Z,99543.79
2019-05-26T09:07:40.737Z,99550.22
2019-05-26T09:08:42.269Z,99546.17
2019-05-26T09:09:43.666Z,99545.02
2019-05-26T09:10:45.308Z,99551.25
2019-05-26T09:11:46.757Z,99547.71
2019-05-26T09:13:00.313Z,99545.02
2019-05-26T09:13:51.625Z,99547.94
2019-05-26T09:14:53.017Z,99549.28
2019-05-26T09:15:54.404Z,99541.70
2019-05-26T09:16:55.800Z,99545.93
2019-05-26T09:17:57.298Z,99553.83
2019-05-26T09:18:58.702Z,99548.63
2019-05-26T09:20:00.153Z,99548.31
2019-05-26T09:21:01.680Z,99545.13
2019-05-26T09:22:03.266Z,99546.97
2019-05-26T09:23:04.701Z,99540.55
2019-05-26T09:24:06.087Z,99543.77
2019-05-26T09:25:08.769Z,99544.58
2019-05-26T09:26:10.156Z,99543.23
2019-05-26T09:27:11.548Z,99535.87
2019-05-26T09:28:12.932Z,99540.23
2019-05-26T09:29:14.570Z,99541.08
2019-05-26T09:30:16.348Z,99543.23
2019-05-26T09:31:17.779Z,99514.33
2019-05-26T09:32:19.151Z,99537.03
2019-05-26T09:33:20.558Z,99537.03
2019-05-26T09:34:21.977Z,99542.23
2019-05-26T09:35:23.475Z,99538.20
2019-05-26T09:36:24.859Z,99536.63
2019-05-26T09:37:26.258Z,99535.59
2019-05-26T09:38:27.653Z,99537.47
2019-05-26T09:39:29.289Z,99532.39
2019-05-26T09:40:30.682Z,99532.08
2019-05-26T09:41:32.140Z,99536.13
2019-05-26T09:42:33.512Z,99530.73
2019-05-26T09:43:34.915Z,99535.59
2019-05-26T09:44:36.488Z,99532.89
2019-05-26T09:45:37.984Z,99533.20
2019-05-26T09:46:39.477Z,99538.81
2019-05-26T09:47:40.875Z,99536.44
2019-05-26T09:48:42.266Z,99535.39
2019-05-26T09:49:43.897Z,99532.89
2019-05-26T09:50:45.269Z,99533.73
2019-05-26T09:51:46.676Z,99532.39
2019-05-26T09:52:48.189Z,99533.73
2019-05-26T09:54:01.308Z,99532.89
2019-05-26T09:54:52.924Z,99535.09
2019-05-26T09:55:54.317Z,99532.89
2019-05-26T09:56:55.712Z,99532.08
2019-05-26T09:57:57.084Z,99537.47
2019-05-26T09:58:58.476Z,99538.81
2019-05-26T09:59:59.888Z,99530.73
2019-05-26T10:01:01.413Z,99540.66
2019-05-26T10:02:03.417Z,99536.63
2019-05-26T10:03:04.821Z,99531.23
2019-05-26T10:04:06.252Z,99530.92
2019-05-26T10:05:08.075Z,99534.47
2019-05-26T10:06:09.510Z,99532.80
2019-05-26T10:07:15.437Z,99532.80
2019-05-26T10:08:14.320Z,99532.46
2019-05-26T10:09:15.875Z,99533.50
2019-05-26T10:10:17.366Z,99526.45
2019-05-26T10:11:18.862Z,99525.64
2019-05-26T10:12:20.459Z,99526.14
2019-05-26T10:13:31.261Z,99532.38
2019-05-26T10:14:25.644Z,99529.06
2019-05-26T10:15:27.030Z,99526.67
2019-05-26T10:16:28.453Z,99532.56
2019-05-26T10:17:30.864Z,99534.45
2019-05-26T10:18:32.277Z,99535.48
2019-05-26T10:19:33.787Z,99535.26
2019-05-26T10:20:35.193Z,99532.56
2019-05-26T10:21:36.675Z,99533.09
2019-05-26T10:22:38.085Z,99526.55
2019-05-26T10:23:39.574Z,99531.75
2019-05-26T10:24:40.977Z,99533.41
2019-05-26T10:25:42.397Z,99535.57
2019-05-26T10:26:43.811Z,99533.50
2019-05-26T10:27:45.217Z,99534.84
2019-05-26T10:28:46.745Z,99542.73
2019-05-26T10:29:48.157Z,99535.27
2019-05-26T10:30:49.599Z,99533.93
2019-05-26T10:31:50.974Z,99537.78
2019-05-26T10:32:52.402Z,99538.09
2019-05-26T10:33:53.763Z,99539.22
2019-05-26T10:34:55.168Z,99530.94
2019-05-26T10:35:56.723Z,99534.45
2019-05-26T10:36:58.145Z,99533.83
2019-05-26T10:37:59.556Z,99528.02
2019-05-26T10:39:02.875Z,99531.56
2019-05-26T10:40:05.483Z,99531.88
2019-05-26T10:41:06.914Z,99530.30
2019-05-26T10:42:08.318Z,99537.66
2019-05-26T10:43:09.767Z,99528.23
2019-05-26T10:44:12.144Z,99536.13
2019-05-26T10:45:14.348Z,99535.09
2019-05-26T10:46:15.948Z,99531.05
2019-05-26T10:47:17.363Z,99536.52
2019-05-26T10:48:18.769Z,99533.83
2019-05-26T10:49:20.180Z,99532.79
2019-05-26T10:50:21.587Z,99530.09
2019-05-26T10:51:23.020Z,99540.68
2019-05-26T10:52:24.399Z,99534.78
2019-05-26T10:53:25.797Z,99532.91
2019-05-26T10:54:27.172Z,99539.14
2019-05-26T10:55:28.678Z,99538.11
2019-05-26T10:56:30.100Z,99531.56
2019-05-26T10:57:31.614Z,99531.14
2019-05-26T10:58:33.034Z,99539.03
2019-05-26T10:59:34.454Z,99538.00
2019-05-26T11:00:35.965Z,99541.50
2019-05-26T11:01:37.561Z,99531.26
2019-05-26T11:02:38.934Z,99536.42
2019-05-26T11:03:40.340Z,99536.73
2019-05-26T11:04:42.723Z,99544.09
2019-05-26T11:05:44.126Z,99537.66
2019-05-26T11:06:45.597Z,99537.66
2019-05-26T11:07:47.004Z,99533.73
2019-05-26T11:08:48.403Z,99537.55
2019-05-26T11:09:49.827Z,99535.79
2019-05-26T11:10:51.234Z,99536.64
2019-05-26T11:11:52.636Z,99540.68
2019-05-26T11:12:54.014Z,99532.06
2019-05-26T11:14:03.013Z,99532.40
2019-05-26T11:14:58.767Z,99538.61
2019-05-26T11:16:00.182Z,99536.45
2019-05-26T11:17:01.740Z,99540.48
2019-05-26T11:18:03.565Z,99531.05
2019-05-26T11:19:04.968Z,99529.90
2019-05-26T11:20:07.281Z,99529.36
2019-05-26T11:21:12.103Z,99522.63
2019-05-26T11:22:12.005Z,99530.20
2019-05-26T11:23:13.384Z,99521.81
2019-05-26T11:24:14.788Z,99529.36
2019-05-26T11:25:16.274Z,99525.01
2019-05-26T11:26:17.685Z,99520.97
2019-05-26T11:27:19.212Z,99526.36
2019-05-26T11:28:20.627Z,99521.81
2019-05-26T11:29:22.046Z,99523.66
2019-05-26T11:30:23.867Z,99521.50
2019-05-26T11:31:25.558Z,99525.55
2019-05-26T11:32:27.190Z,99521.81
2019-05-26T11:33:28.537Z,99522.63
2019-05-26T11:34:30.040Z,99522.96
2019-05-26T11:35:31.421Z,99523.47
2019-05-26T11:36:32.827Z,99521.62
2019-05-26T11:37:34.272Z,99524.31
2019-05-26T11:38:35.684Z,99525.97
2019-05-26T11:39:37.095Z,99523.78
2019-05-26T11:40:38.510Z,99527.31
2019-05-26T11:41:39.954Z,99520.27
2019-05-26T11:42:44.636Z,99527.01
2019-05-26T11:43:44.824Z,99525.66
2019-05-26T11:44:46.416Z,99520.27
2019-05-26T11:45:47.898Z,99518.58
2019-05-26T11:46:49.401Z,99518.58
2019-05-26T11:47:50.792Z,99513.19
2019-05-26T11:48:52.371Z,99525.01
2019-05-26T11:49:53.795Z,99522.31
2019-05-26T11:50:55.313Z,99519.62
2019-05-26T11:51:56.725Z,99524.50
2019-05-26T11:52:58.181Z,99519.00
2019-05-26T11:53:59.601Z,99511.45
2019-05-26T11:55:00.959Z,99516.84
2019-05-26T11:56:02.338Z,99517.88
2019-05-26T11:57:03.741Z,99520.03
2019-05-26T11:58:05.152Z,99518.38
2019-05-26T11:59:06.568Z,99515.91
2019-05-26T12:00:10.530Z,99517.76
2019-05-26T12:01:12.387Z,99519.11
2019-05-26T12:02:13.808Z,99519.11
2019-05-26T12:03:15.216Z,99517.45
2019-05-26T12:04:16.700Z,99521.49